Time;durP1;ratioP1;P1;durP2;ratioP2;P2;SDS_P1;SDS_P2;PMS_P1;PMS_P2;Temp;Humidity;BMP_temperature;BMP_pressure;BME280_temperature;BME280_humidity;BME280_pressure;Samples;Min_cycle;Max_cycle;Signal;HPM_P1;HPM_P2
2021/09/20 00:01:32;;;;;;;;;;;;;;;-144.99;81.08;52472.56;5061915;28;20053;-76
2021/09/20 00:03:58;;;;;;;;;;;;;;;-144.99;80.96;52444.03;5060147;28;19994;-74
2021/09/20 00:06:25;;;;;;;;;;;;;;;-144.99;81.01;52448.09;5059767;28;19990;-73
2021/09/20 00:08:53;;;;;;;;;;;;;;;-144.99;80.94;52462.34;4705642;28;10000517;-76
2021/09/20 00:11:19;;;;;;;;;;;;;;;-144.99;81.00;52480.72;5055111;28;19980;-73
2021/09/20 00:13:45;;;;;;;;;;;;;;;-144.99;80.83;52456.25;5056312;28;20150;-76
2021/09/20 00:16:12;;;;;;;;;;;;;;;-144.99;80.81;52464.41;5057910;28;20790;-75
2021/09/20 00:18:38;;;;;;;;;;;;;;;-144.99;80.88;52468.47;5054734;28;20423;-74
2021/09/20 00:21:05;;;;;;;;;;;;;;;-144.99;80.50;52470.50;5058020;28;19981;-74
2021/09/20 00:26:00;;;;;;;;;;;;;;;-144.99;80.80;52472.56;5022430;28;19989;-79
2021/09/20 00:28:27;;;;;;;;;;;;;;;-144.99;80.95;52456.25;5032086;28;20461;-76
2021/09/20 00:30:54;;;;;;;;;;;;;;;-144.99;81.21;52476.63;5031428;28;20043;-77
2021/09/20 00:33:21;;;;;;;;;;;;;;;-144.99;81.05;52456.25;5030168;28;19989;-77
2021/09/20 00:35:47;;;;;;;;;;;;;;;-144.99;81.14;52452.16;5032447;28;19996;-78
2021/09/20 00:38:14;;;;;;;;;;;;;;;-144.99;80.60;52464.41;5031274;28;20083;-78
2021/09/20 00:40:40;;;;;;;;;;;;;;;-144.99;80.80;52460.31;5024526;28;20094;-76
2021/09/20 00:43:08;;;;;;;;;;;;;;;-144.99;80.89;52456.25;5043400;28;20203;-78
2021/09/20 00:45:35;;;;;;;;;;;;;;;-144.99;80.70;52476.63;5029478;28;19998;-77
2021/09/20 00:48:01;;;;;;;;;;;;;;;-144.99;80.63;52480.72;5029492;28;19977;-77
2021/09/20 00:50:28;;;;;;;;;;;;;;;-144.99;80.75;52456.25;5030592;28;20094;-77
2021/09/20 00:52:54;;;;;;;;;;;;;;;-144.99;80.89;52464.41;5034569;28;20384;-76
2021/09/20 00:55:21;;;;;;;;;;;;;;;-144.99;80.78;52503.13;5035074;28;19992;-78
2021/09/20 00:57:47;;;;;;;;;;;;;;;-144.99;80.66;52419.56;5029331;28;20341;-78
2021/09/20 01:00:16;;;;;;;;;;;;;;;-144.99;80.50;52452.16;5040979;28;19976;-78
2021/09/20 01:02:42;;;;;;;;;;;;;;;-144.99;80.59;52484.78;5030119;28;19976;-78
2021/09/20 01:05:09;;;;;;;;;;;;;;;-144.99;80.63;52482.75;5038566;28;20002;-78
2021/09/20 01:07:36;;;;;;;;;;;;;;;-144.99;80.38;52478.66;5023397;28;20085;-76
2021/09/20 01:10:02;;;;;;;;;;;;;;;-144.99;80.50;52460.31;5035044;28;20375;-75
2021/09/20 01:12:29;;;;;;;;;;;;;;;-144.99;80.70;52423.63;5031724;28;19989;-75
2021/09/20 01:14:56;;;;;;;;;;;;;;;-144.99;80.43;52464.41;5032619;28;20354;-76
2021/09/20 01:17:24;;;;;;;;;;;;;;;-144.99;80.68;52444.03;5032389;28;19926;-76
2021/09/20 01:19:51;;;;;;;;;;;;;;;-144.99;81.40;52462.34;5025010;28;20005;-76
2021/09/20 01:22:20;;;;;;;;;;;;;;;-144.99;81.64;52499.06;5018767;28;19978;-77
2021/09/20 01:24:48;;;;;;;;;;;;;;;-144.99;81.74;52488.84;5039923;28;20466;-76
2021/09/20 01:27:17;;;;;;;;;;;;;;;-144.99;81.57;52464.41;5022598;28;19980;-76
2021/09/20 01:29:46;;;;;;;;;;;;;;;-144.99;81.57;52456.25;5034627;28;19973;-76
2021/09/20 01:32:13;;;;;;;;;;;;;;;-144.99;81.44;52464.41;5025005;28;20029;-76
2021/09/20 01:34:40;;;;;;;;;;;;;;;-144.99;81.59;52448.09;5037536;28;19992;-76
2021/09/20 01:37:06;;;;;;;;;;;;;;;-144.99;81.28;52484.78;5034852;28;19964;-75
2021/09/20 01:39:34;;;;;;;;;;;;;;;-144.99;81.28;52484.78;5046399;28;19974;-76
2021/09/20 01:42:02;;;;;;;;;;;;;;;-144.99;81.45;52452.16;5023067;28;20459;-77
2021/09/20 01:44:28;;;;;;;;;;;;;;;-144.99;81.59;52458.28;5034978;28;20302;-77
2021/09/20 01:46:56;;;;;;;;;;;;;;;-144.99;81.46;52435.88;5033428;28;20440;-77
2021/09/20 01:49:23;;;;;;;;;;;;;;;-144.99;81.40;52460.31;5030242;28;19986;-76
2021/09/20 01:51:49;;;;;;;;;;;;;;;-144.99;81.17;52456.25;5037597;28;19979;-76
2021/09/20 01:54:16;;;;;;;;;;;;;;;-144.99;80.82;52468.47;5030918;28;20004;-77
2021/09/20 01:56:43;;;;;;;;;;;;;;;-144.99;80.69;52468.47;5031336;28;20326;-77
2021/09/20 01:59:10;;;;;;;;;;;;;;;-144.99;80.48;52460.31;5041157;28;19986;-76
2021/09/20 02:01:37;;;;;;;;;;;;;;;-144.99;79.90;52476.63;5024289;28;20019;-76
2021/09/20 02:04:04;;;;;;;;;;;;;;;-144.99;79.66;52431.78;5029921;28;19998;-76
2021/09/20 02:06:30;;;;;;;;;;;;;;;-144.99;79.58;52444.03;5039023;28;20002;-76
2021/09/20 02:08:57;;;;;;;;;;;;;;;-144.99;79.52;52484.78;5025368;28;19980;-76
2021/09/20 02:11:27;;;;;;;;;;;;;;;-144.99;79.21;52456.25;5023713;28;19974;-77
2021/09/20 02:13:54;;;;;;;;;;;;;;;-144.99;78.95;52472.56;5037004;28;19996;-78
2021/09/20 02:16:22;;;;;;;;;;;;;;;-144.99;78.92;52505.16;5034317;28;20368;-77
2021/09/20 02:18:48;;;;;;;;;;;;;;;-144.99;78.75;52452.16;5029335;28;19942;-77
2021/09/20 02:21:15;;;;;;;;;;;;;;;-144.99;78.66;52460.31;5034554;28;20067;-77
2021/09/20 02:23:42;;;;;;;;;;;;;;;-144.99;78.92;52407.31;5035799;28;20017;-76
2021/09/20 02:26:09;;;;;;;;;;;;;;;-144.99;79.20;52466.44;5024301;28;20049;-76
2021/09/20 02:28:36;;;;;;;;;;;;;;;-144.99;79.24;52431.78;5030485;28;19983;-76
2021/09/20 02:31:04;;;;;;;;;;;;;;;-144.99;79.24;52480.72;5030575;28;19978;-77
2021/09/20 02:33:32;;;;;;;;;;;;;;;-144.99;79.33;52476.63;5044798;28;20459;-78
2021/09/20 02:35:58;;;;;;;;;;;;;;;-144.99;79.28;52452.16;5039109;28;20052;-77
2021/09/20 02:38:24;;;;;;;;;;;;;;;-144.99;79.17;52484.78;5013819;28;19981;-77
2021/09/20 02:40:51;;;;;;;;;;;;;;;-144.99;79.07;52423.63;5022558;28;20076;-77
2021/09/20 02:43:17;;;;;;;;;;;;;;;-144.99;79.03;52448.09;5032870;28;19976;-78
2021/09/20 02:45:44;;;;;;;;;;;;;;;-144.99;78.93;52431.78;5033121;28;20278;-77
2021/09/20 02:48:10;;;;;;;;;;;;;;;-144.99;78.83;52439.94;5036823;28;19988;-78
2021/09/20 02:50:38;;;;;;;;;;;;;;;-144.99;78.99;52460.31;5041234;28;19973;-77
2021/09/20 02:53:05;;;;;;;;;;;;;;;-144.99;79.26;52468.47;5025245;28;20358;-77
2021/09/20 02:55:32;;;;;;;;;;;;;;;-144.99;79.24;52494.97;5016407;28;20083;-77
2021/09/20 02:57:58;;;;;;;;;;;;;;;-144.99;79.45;52403.25;5026958;28;20495;-77
2021/09/20 03:00:25;;;;;;;;;;;;;;;-144.99;79.19;52458.28;5021956;28;19980;-77
2021/09/20 03:02:51;;;;;;;;;;;;;;;-144.99;79.17;52427.72;5035430;28;19973;-77
2021/09/20 03:05:18;;;;;;;;;;;;;;;-144.99;79.09;52431.78;5020172;28;19992;-78
2021/09/20 03:07:45;;;;;;;;;;;;;;;-144.99;79.54;52448.09;5033879;28;20064;-77
2021/09/20 03:10:12;;;;;;;;;;;;;;;-144.99;79.44;52488.84;5020653;28;19988;-77
2021/09/20 03:12:39;;;;;;;;;;;;;;;-144.99;79.35;52472.56;5022661;28;19992;-75
2021/09/20 03:15:06;;;;;;;;;;;;;;;-144.99;79.38;52450.13;5024635;28;19972;-77
2021/09/20 03:17:33;;;;;;;;;;;;;;;-144.99;79.42;52472.56;5027704;28;19991;-77
2021/09/20 03:20:00;;;;;;;;;;;;;;;-144.99;79.40;52456.25;5021891;28;20049;-77
2021/09/20 03:22:26;;;;;;;;;;;;;;;-144.99;79.50;52448.09;5033897;28;19976;-77
2021/09/20 03:24:54;;;;;;;;;;;;;;;-144.99;79.55;52472.56;5037562;28;20004;-77
2021/09/20 03:27:20;;;;;;;;;;;;;;;-144.99;79.79;52435.88;5020191;28;19982;-77
2021/09/20 03:29:47;;;;;;;;;;;;;;;-144.99;79.71;52464.41;5036205;28;19997;-76
2021/09/20 03:32:13;;;;;;;;;;;;;;;-144.99;79.69;52446.06;5035439;28;20037;-76
2021/09/20 03:34:41;;;;;;;;;;;;;;;-144.99;79.60;52458.28;5028250;28;20375;-75
2021/09/20 03:37:07;;;;;;;;;;;;;;;-144.99;79.83;52460.31;5028316;28;20530;-77
2021/09/20 03:39:34;;;;;;;;;;;;;;;-144.99;79.72;52446.06;5024479;28;19981;-76
2021/09/20 03:42:02;;;;;;;;;;;;;;;-144.99;79.72;52501.09;5023243;28;19980;-74
2021/09/20 03:44:28;;;;;;;;;;;;;;;-144.99;79.94;52476.63;5030428;28;20109;-75
2021/09/20 03:46:55;;;;;;;;;;;;;;;-144.99;79.95;52492.94;5034680;28;20038;-75
2021/09/20 03:49:21;;;;;;;;;;;;;;;-144.99;79.83;52456.25;5038863;28;20443;-76
2021/09/20 03:51:47;;;;;;;;;;;;;;;-144.99;79.94;52478.66;5019549;28;19985;-76
2021/09/20 03:54:14;;;;;;;;;;;;;;;-144.99;80.04;52460.31;5028206;28;20517;-77
2021/09/20 03:56:40;;;;;;;;;;;;;;;-144.99;79.97;52452.16;5029094;28;19974;-77
2021/09/20 03:59:08;;;;;;;;;;;;;;;-144.99;80.63;52468.47;5030957;28;19987;-78
2021/09/20 04:01:34;;;;;;;;;;;;;;;-144.99;80.78;52464.41;5024485;28;19980;-76
2021/09/20 04:04:01;;;;;;;;;;;;;;;-144.99;80.79;52472.56;5039897;28;20180;-78
2021/09/20 04:06:27;;;;;;;;;;;;;;;-144.99;80.82;52476.63;5030453;28;19988;-79
2021/09/20 04:08:58;;;;;;;;;;;;;;;-144.99;80.72;52480.72;5036202;28;19983;-78
2021/09/20 04:11:24;;;;;;;;;;;;;;;-144.99;80.91;52439.94;5028311;28;19973;-79
2021/09/20 04:13:51;;;;;;;;;;;;;;;-144.99;80.83;52480.72;5038229;28;19993;-79
2021/09/20 04:16:18;;;;;;;;;;;;;;;-144.99;80.92;52452.16;5032569;28;19973;-79
2021/09/20 04:18:48;;;;;;;;;;;;;;;-144.99;81.12;52468.47;5022703;28;20075;-79
2021/09/20 04:21:14;;;;;;;;;;;;;;;-144.99;81.39;52488.84;5030653;28;19981;-79
2021/09/20 04:23:41;;;;;;;;;;;;;;;-144.99;81.65;52464.41;5047132;28;20436;-79
2021/09/20 04:26:07;;;;;;;;;;;;;;;-144.99;81.79;52456.25;5031540;28;20012;-79
2021/09/20 04:28:36;;;;;;;;;;;;;;;-144.99;82.04;52484.78;5031577;28;20077;-77
2021/09/20 04:31:02;;;;;;;;;;;;;;;-144.99;82.05;52497.00;5040549;28;19977;-77
2021/09/20 04:33:30;;;;;;;;;;;;;;;-144.99;81.92;52494.97;5037170;28;20020;-76
2021/09/20 04:35:56;;;;;;;;;;;;;;;-144.99;82.07;52499.06;5029360;28;19999;-75
2021/09/20 04:38:28;;;;;;;;;;;;;;;-144.99;82.03;52415.47;5039180;28;19983;-76
2021/09/20 04:40:56;;;;;;;;;;;;;;;-144.99;82.37;52478.66;5035264;28;19981;-76
2021/09/20 04:43:22;;;;;;;;;;;;;;;-144.99;82.33;52480.72;5033210;28;19973;-76
2021/09/20 04:45:48;;;;;;;;;;;;;;;-144.99;82.53;52488.84;5040948;28;19994;-76
2021/09/20 04:48:15;;;;;;;;;;;;;;;-144.99;82.58;52460.31;5028850;28;19978;-76
2021/09/20 04:50:44;;;;;;;;;;;;;;;-144.99;82.41;52450.13;5041277;28;19996;-76
2021/09/20 04:53:10;;;;;;;;;;;;;;;-144.99;82.42;52458.28;5025435;28;19981;-75
2021/09/20 04:55:37;;;;;;;;;;;;;;;-144.99;82.59;52480.72;5027804;28;19988;-75
2021/09/20 04:58:04;;;;;;;;;;;;;;;-144.99;82.59;52501.09;5022710;28;19977;-76
2021/09/20 05:00:30;;;;;;;;;;;;;;;-144.99;82.92;52468.47;5025377;28;20465;-76
2021/09/20 05:02:57;;;;;;;;;;;;;;;-144.99;82.91;52444.03;5037479;28;19976;-75
2021/09/20 05:05:23;;;;;;;;;;;;;;;-144.99;82.85;52456.25;5029235;28;20455;-74
2021/09/20 05:07:54;;;;;;;;;;;;;;;-144.99;82.91;52484.78;5033734;28;19976;-76
2021/09/20 05:10:20;;;;;;;;;;;;;;;-144.99;82.98;52452.16;5029541;28;19973;-74
2021/09/20 05:12:47;;;;;;;;;;;;;;;-144.99;82.76;52439.94;5018691;28;19993;-75
2021/09/20 05:15:14;;;;;;;;;;;;;;;-144.99;82.83;52460.31;5037370;28;20048;-75
2021/09/20 05:17:41;;;;;;;;;;;;;;;-144.99;82.69;52476.63;5027826;28;20352;-74
2021/09/20 05:20:08;;;;;;;;;;;;;;;-144.99;82.55;52460.31;5024492;28;20022;-75
2021/09/20 05:22:39;;;;;;;;;;;;;;;-144.99;82.29;52448.09;5039884;28;19979;-76
2021/09/20 05:25:11;;;;;;;;;;;;;;;-144.99;82.54;52444.03;5049668;28;19996;-74
2021/09/20 05:27:37;;;;;;;;;;;;;;;-144.99;82.35;52476.63;5037626;28;19976;-74
2021/09/20 05:30:09;;;;;;;;;;;;;;;-144.99;82.44;52468.47;5033805;28;20090;-73
2021/09/20 05:32:36;;;;;;;;;;;;;;;-144.99;82.55;52470.50;5030761;28;19973;-79
2021/09/20 05:35:02;;;;;;;;;;;;;;;-144.99;82.81;52431.78;5030293;28;20441;-77
2021/09/20 05:37:29;;;;;;;;;;;;;;;-144.99;82.94;52464.41;5023158;28;20044;-79
2021/09/20 05:39:56;;;;;;;;;;;;;;;-144.99;83.22;52431.78;5040205;28;19977;-79
2021/09/20 05:42:24;;;;;;;;;;;;;;;-144.99;83.18;52470.50;5031437;28;20428;-79
2021/09/20 05:44:50;;;;;;;;;;;;;;;-144.99;83.32;52423.63;5045519;28;19988;-76
2021/09/20 05:47:16;;;;;;;;;;;;;;;-144.99;83.42;52439.94;5023520;28;20337;-76
2021/09/20 05:49:43;;;;;;;;;;;;;;;-144.99;83.81;52484.78;5030017;28;20072;-77
2021/09/20 05:52:09;;;;;;;;;;;;;;;-144.99;83.65;52460.31;5030295;28;20035;-77
2021/09/20 05:54:36;;;;;;;;;;;;;;;-144.99;84.06;52452.16;5037548;28;19993;-70
2021/09/20 05:57:02;;;;;;;;;;;;;;;-144.99;85.14;52480.72;5026050;28;20234;-68
2021/09/20 05:59:30;;;;;;;;;;;;;;;-144.99;85.46;52480.72;5025666;28;19978;-68
2021/09/20 06:01:57;;;;;;;;;;;;;;;-144.99;85.68;52468.47;5041355;28;20068;-69
2021/09/20 06:04:24;;;;;;;;;;;;;;;-144.99;86.25;52452.16;5016374;28;19998;-68
2021/09/20 06:06:50;;;;;;;;;;;;;;;-144.99;87.15;52456.25;5027245;28;20047;-68
2021/09/20 06:09:17;;;;;;;;;;;;;;;-144.99;87.00;52452.16;5034698;28;19980;-78
2021/09/20 06:11:44;;;;;;;;;;;;;;;-144.99;86.67;52452.16;5035548;28;20757;-75
2021/09/20 06:14:10;;;;;;;;;;;;;;;-144.99;85.12;52446.06;5044080;28;20003;-80
2021/09/20 06:16:38;;;;;;;;;;;;;;;-144.99;85.14;52480.72;5030133;28;20537;-77
2021/09/20 06:19:04;;;;;;;;;;;;;;;-144.99;84.74;52444.03;5020804;28;19990;-79
2021/09/20 06:21:31;;;;;;;;;;;;;;;-144.99;84.48;52480.72;5029254;28;20498;-80
2021/09/20 06:23:57;;;;;;;;;;;;;;;-144.99;84.36;52472.56;5035278;28;19996;-78
2021/09/20 06:26:24;;;;;;;;;;;;;;;-144.99;84.26;52460.31;5081888;22;19976;-73
2021/09/20 06:28:50;;;;;;;;;;;;;;;-144.99;84.29;52452.16;5068836;28;20234;-74
2021/09/20 06:31:17;;;;;;;;;;;;;;;-144.99;84.15;52439.94;5074802;28;19976;-72
2021/09/20 06:33:44;;;;;;;;;;;;;;;-144.99;83.85;52456.25;5072518;28;19992;-73
2021/09/20 06:36:11;;;;;;;;;;;;;;;-144.99;83.78;52431.78;5066388;28;20002;-75
2021/09/20 06:38:37;;;;;;;;;;;;;;;-144.99;83.80;52472.56;5065656;28;20006;-71
2021/09/20 06:41:03;;;;;;;;;;;;;;;-144.99;83.76;52419.56;5064905;28;19975;-75
2021/09/20 06:43:30;;;;;;;;;;;;;;;-144.99;83.89;52476.63;5066443;28;20003;-73
2021/09/20 06:45:57;;;;;;;;;;;;;;;-144.99;83.61;52464.41;5066330;28;20454;-74
2021/09/20 06:48:23;;;;;;;;;;;;;;;-144.99;83.63;52448.09;5065718;28;19981;-75
2021/09/20 06:50:51;;;;;;;;;;;;;;;-144.99;83.34;52484.78;5063172;28;19979;-72
2021/09/20 06:53:17;;;;;;;;;;;;;;;-144.99;83.27;52484.78;5064274;28;19976;-73
2021/09/20 06:55:43;;;;;;;;;;;;;;;-144.99;82.78;52435.88;5066229;28;20001;-74
2021/09/20 06:58:10;;;;;;;;;;;;;;;-144.99;82.87;52472.56;5065577;28;19981;-72
2021/09/20 07:00:36;;;;;;;;;;;;;;;-144.99;82.98;52460.31;5064233;28;20007;-71
2021/09/20 07:03:03;;;;;;;;;;;;;;;-144.99;82.79;52448.09;5061072;28;20477;-73
2021/09/20 07:05:29;;;;;;;;;;;;;;;-144.99;82.82;52466.44;5058316;28;20006;-73
2021/09/20 07:08:00;;;;;;;;;;;;;;;-144.99;82.81;52448.09;5063884;28;20469;-73
2021/09/20 07:10:26;;;;;;;;;;;;;;;-144.99;82.46;52433.81;5065303;28;19972;-72
2021/09/20 07:12:53;;;;;;;;;;;;;;;-144.99;82.30;52439.94;5064834;28;19979;-74
2021/09/20 07:15:19;;;;;;;;;;;;;;;-144.99;81.94;52476.63;5065957;28;19999;-72
2021/09/20 07:17:45;;;;;;;;;;;;;;;-144.99;81.99;52456.25;5065593;28;19985;-73
2021/09/20 07:20:13;;;;;;;;;;;;;;;-144.99;81.94;52407.31;5064958;28;19982;-73
2021/09/20 07:22:39;;;;;;;;;;;;;;;-144.99;81.54;52415.47;5063129;28;19982;-74
2021/09/20 07:25:08;;;;;;;;;;;;;;;-144.99;81.19;52425.66;5065218;28;19995;-73
2021/09/20 07:27:35;;;;;;;;;;;;;;;-144.99;81.46;52448.09;5063888;28;20535;-72
2021/09/20 07:30:01;;;;;;;;;;;;;;;-144.99;81.81;52452.16;5062474;28;20464;-73
2021/09/20 07:32:28;;;;;;;;;;;;;;;-144.99;81.70;52466.44;5063884;28;20074;-72
2021/09/20 07:34:54;;;;;;;;;;;;;;;-144.99;81.47;52444.03;5064897;28;20006;-72
2021/09/20 07:37:20;;;;;;;;;;;;;;;-144.99;81.08;52444.03;5064123;28;19981;-72
2021/09/20 07:39:47;;;;;;;;;;;;;;;-144.99;80.92;52429.75;5064072;28;20070;-72
2021/09/20 07:42:15;;;;;;;;;;;;;;;-144.99;80.11;52407.31;5064324;28;19993;-71
2021/09/20 07:44:41;;;;;;;;;;;;;;;-144.99;79.95;52435.88;5064870;28;20627;-72
2021/09/20 07:47:08;;;;;;;;;;;;;;;-144.99;79.94;52450.13;5065179;28;19980;-72
2021/09/20 07:49:34;;;;;;;;;;;;;;;-144.99;79.63;52431.78;5064928;28;20468;-71
2021/09/20 07:52:00;;;;;;;;;;;;;;;-144.99;78.83;52435.88;5060251;28;20410;-72
2021/09/20 07:54:27;;;;;;;;;;;;;;;-144.99;78.52;52399.19;5065433;28;19999;-75
2021/09/20 07:56:53;;;;;;;;;;;;;;;-144.99;78.11;52391.03;5070493;28;20042;-73
2021/09/20 07:59:21;;;;;;;;;;;;;;;-144.99;77.19;52431.78;5069313;28;19987;-74
2021/09/20 08:01:48;;;;;;;;;;;;;;;-144.99;77.07;52464.41;5074239;28;19985;-74
2021/09/20 08:04:14;;;;;;;;;;;;;;;-144.99;77.21;52472.56;5076371;28;20008;-73
2021/09/20 08:06:41;;;;;;;;;;;;;;;-144.99;77.01;52444.03;5071767;28;20019;-74
2021/09/20 08:09:07;;;;;;;;;;;;;;;-144.99;76.95;52407.31;5068608;28;20002;-74
2021/09/20 08:11:34;;;;;;;;;;;;;;;-144.99;76.37;52391.03;5069335;28;19980;-73
2021/09/20 08:14:00;;;;;;;;;;;;;;;-144.99;75.91;52403.25;5064768;28;19989;-70
2021/09/20 08:16:28;;;;;;;;;;;;;;;-144.99;74.93;52407.31;5066324;28;20341;-75
2021/09/20 08:18:54;;;;;;;;;;;;;;;-144.99;74.89;52407.31;5060513;28;20409;-72
2021/09/20 08:21:21;;;;;;;;;;;;;;;-144.99;74.98;52378.78;5070640;28;19980;-74
2021/09/20 08:23:47;;;;;;;;;;;;;;;-144.99;74.59;52407.31;5077546;28;20429;-76
2021/09/20 08:26:13;;;;;;;;;;;;;;;-144.99;74.91;52435.88;5070758;28;20039;-76
2021/09/20 08:28:40;;;;;;;;;;;;;;;-144.99;74.63;52407.31;5069740;28;19990;-73
2021/09/20 08:31:06;;;;;;;;;;;;;;;-144.99;74.35;52403.25;5069438;28;19972;-72
2021/09/20 08:33:34;;;;;;;;;;;;;;;-144.99;74.51;52395.09;5063024;28;19992;-75
2021/09/20 08:36:00;;;;;;;;;;;;;;;-144.99;74.41;52435.88;5057350;28;20154;-72
2021/09/20 08:38:27;;;;;;;;;;;;;;;-144.99;74.27;52435.88;5060044;28;20053;-70
2021/09/20 08:40:53;;;;;;;;;;;;;;;-144.99;73.75;52439.94;5058284;28;19982;-73
2021/09/20 08:43:20;;;;;;;;;;;;;;;-144.99;73.67;52419.56;5065226;28;19988;-74
2021/09/20 08:45:46;;;;;;;;;;;;;;;-144.99;73.64;52427.72;5063926;28;20002;-76
2021/09/20 08:48:13;;;;;;;;;;;;;;;-144.99;73.25;52423.63;5064998;28;19976;-75
2021/09/20 08:50:41;;;;;;;;;;;;;;;-144.99;73.34;52419.56;5067330;28;20325;-73
2021/09/20 08:53:09;;;;;;;;;;;;;;;-144.99;72.67;52415.47;5056290;28;19980;-71
2021/09/20 08:55:36;;;;;;;;;;;;;;;-144.99;72.25;52427.72;5069012;28;19999;-73
2021/09/20 08:58:03;;;;;;;;;;;;;;;-144.99;72.28;52419.56;5067033;28;19976;-74
2021/09/20 09:00:30;;;;;;;;;;;;;;;-144.99;71.30;52446.06;5067553;28;19986;-73
2021/09/20 09:02:56;;;;;;;;;;;;;;;-144.99;71.33;52415.47;5065654;28;20125;-73
2021/09/20 09:05:23;;;;;;;;;;;;;;;-144.99;70.73;52395.09;5057802;28;20080;-73
2021/09/20 09:07:54;;;;;;;;;;;;;;;-144.99;70.28;52399.19;5063768;28;19982;-71
2021/09/20 09:10:22;;;;;;;;;;;;;;;-144.99;70.03;52399.19;5067484;28;19982;-75
2021/09/20 09:12:49;;;;;;;;;;;;;;;-144.99;70.26;52395.09;5068185;28;20366;-74
2021/09/20 09:15:16;;;;;;;;;;;;;;;-144.99;69.35;52417.53;5065844;28;20032;-73
2021/09/20 09:17:45;;;;;;;;;;;;;;;-144.99;69.44;52386.94;5067185;28;20279;-73
2021/09/20 09:20:12;;;;;;;;;;;;;;;-144.99;69.71;52382.88;5057284;28;20000;-73
2021/09/20 09:22:40;;;;;;;;;;;;;;;-144.99;69.33;52407.31;5060370;28;19980;-75
2021/09/20 09:25:09;;;;;;;;;;;;;;;-144.99;69.18;52391.03;5065851;28;19991;-75
2021/09/20 09:27:36;;;;;;;;;;;;;;;-144.99;68.83;52423.63;5067471;28;19971;-71
2021/09/20 09:30:08;;;;;;;;;;;;;;;-144.99;68.68;52421.59;5066662;28;20371;-74
2021/09/20 09:32:35;;;;;;;;;;;;;;;-144.99;68.07;52378.78;5066573;28;19972;-73
2021/09/20 09:35:05;;;;;;;;;;;;;;;-144.99;67.35;52419.56;5061215;28;19996;-72
2021/09/20 09:37:33;;;;;;;;;;;;;;;-144.99;67.40;52399.19;5061083;28;19982;-73
2021/09/20 09:40:09;;;;;;;;;;;;;;;-144.99;66.82;52423.63;5066318;28;19976;-73
2021/09/20 09:42:35;;;;;;;;;;;;;;;-144.99;66.55;52423.63;5067481;28;19972;-74
2021/09/20 09:45:14;;;;;;;;;;;;;;;-144.99;67.19;52427.72;5066880;28;20006;-72
2021/09/20 09:47:40;;;;;;;;;;;;;;;-144.99;67.17;52386.94;5060479;28;19953;-71
2021/09/20 09:50:14;;;;;;;;;;;;;;;-144.99;67.23;52395.09;5066756;28;20459;-74
2021/09/20 09:52:41;;;;;;;;;;;;;;;-144.99;67.64;52391.03;5054176;28;20464;-72
2021/09/20 09:55:09;;;;;;;;;;;;;;;-144.99;67.09;52391.03;5067009;28;19999;-76
2021/09/20 09:57:36;;;;;;;;;;;;;;;-144.99;66.51;52391.03;5064130;28;20007;-72
2021/09/20 10:00:04;;;;;;;;;;;;;;;-144.99;66.30;52399.19;5062740;28;19980;-73
2021/09/20 10:02:33;;;;;;;;;;;;;;;-144.99;64.41;52399.19;5066410;28;19979;-75
2021/09/20 10:05:00;;;;;;;;;;;;;;;-144.99;64.41;52386.94;5063011;28;20188;-76
2021/09/20 10:07:28;;;;;;;;;;;;;;;-144.99;64.73;52423.63;5065459;28;19986;-75
2021/09/20 10:09:55;;;;;;;;;;;;;;;-144.99;64.49;52393.06;5066707;28;20239;-75
2021/09/20 10:12:26;;;;;;;;;;;;;;;-144.99;64.46;52378.78;5067844;28;20090;-75
2021/09/20 10:14:56;;;;;;;;;;;;;;;-144.99;64.15;52407.31;5064776;28;19994;-75
2021/09/20 10:17:23;;;;;;;;;;;;;;;-144.99;63.83;52395.09;5066499;28;20079;-74
2021/09/20 10:19:49;;;;;;;;;;;;;;;-144.99;63.98;52395.09;5065820;28;19984;-72
2021/09/20 10:22:16;;;;;;;;;;;;;;;-144.99;63.73;52423.63;5065717;28;20237;-74
2021/09/20 10:24:43;;;;;;;;;;;;;;;-144.99;63.49;52403.25;5055867;28;19983;-74
2021/09/20 10:27:10;;;;;;;;;;;;;;;-144.99;63.51;52393.06;5058077;28;19977;-74
2021/09/20 10:29:38;;;;;;;;;;;;;;;-144.99;62.54;52391.03;5065726;28;19975;-75
2021/09/20 10:32:05;;;;;;;;;;;;;;;-144.99;62.72;52374.72;5062267;28;19976;-75
2021/09/20 10:34:32;;;;;;;;;;;;;;;-144.99;62.46;52397.13;5063965;28;19990;-73
2021/09/20 10:37:03;;;;;;;;;;;;;;;-144.99;62.38;52411.41;5063191;28;19995;-74
2021/09/20 10:39:43;;;;;;;;;;;;;;;-144.99;62.13;52403.25;5065426;28;20289;-74
2021/09/20 10:42:11;;;;;;;;;;;;;;;-144.99;62.16;52399.19;5066988;28;19989;-74
2021/09/20 10:44:39;;;;;;;;;;;;;;;-144.99;62.43;52399.19;5066535;28;20009;-73
2021/09/20 10:47:13;;;;;;;;;;;;;;;-144.99;61.85;52419.56;5064647;28;20449;-75
2021/09/20 10:49:47;;;;;;;;;;;;;;;-144.99;61.98;52403.25;5065296;28;19995;-74
2021/09/20 10:52:14;;;;;;;;;;;;;;;-144.99;60.89;52415.47;5057026;28;19995;-74
2021/09/20 10:54:40;;;;;;;;;;;;;;;-144.99;60.68;52393.06;5066280;28;20000;-74
2021/09/20 10:57:17;;;;;;;;;;;;;;;-144.99;60.52;52372.69;5064689;28;19990;-74
2021/09/20 10:59:45;;;;;;;;;;;;;;;-144.99;59.50;52378.78;5058301;28;19971;-74
2021/09/20 11:02:13;;;;;;;;;;;;;;;-144.99;59.61;52427.72;5066176;28;19983;-73
2021/09/20 11:04:41;;;;;;;;;;;;;;;-144.99;59.45;52403.25;5065757;28;19977;-73
2021/09/20 11:07:12;;;;;;;;;;;;;;;-144.99;58.56;52415.47;5061749;28;20024;-73
2021/09/20 11:09:40;;;;;;;;;;;;;;;-144.99;58.60;52366.56;5058077;28;20006;-74
2021/09/20 11:12:07;;;;;;;;;;;;;;;-144.99;58.17;52370.63;5058625;28;19975;-72
2021/09/20 11:14:38;;;;;;;;;;;;;;;-144.99;57.15;52382.88;5061818;28;20421;-72
2021/09/20 11:17:18;;;;;;;;;;;;;;;-144.99;57.01;52403.25;5061100;28;19991;-74
2021/09/20 11:19:45;;;;;;;;;;;;;;;-144.99;56.84;52399.19;5058265;28;20062;-73
2021/09/20 11:22:18;;;;;;;;;;;;;;;-144.99;56.39;52403.25;5055644;28;19988;-74
2021/09/20 11:24:46;;;;;;;;;;;;;;;-144.99;55.86;52374.72;5064746;28;20001;-72
2021/09/20 11:27:14;;;;;;;;;;;;;;;-144.99;56.55;52427.72;5065118;28;19986;-75
2021/09/20 11:29:40;;;;;;;;;;;;;;;-144.99;56.95;52374.72;5061912;28;20036;-73
2021/09/20 11:32:07;;;;;;;;;;;;;;;-144.99;57.06;52362.50;5063774;28;20516;-74
2021/09/20 11:34:36;;;;;;;;;;;;;;;-144.99;56.96;52386.94;5065172;28;19963;-73
2021/09/20 11:37:08;;;;;;;;;;;;;;;-144.99;56.68;52411.41;5063973;28;20126;-73
2021/09/20 11:39:45;;;;;;;;;;;;;;;-144.99;56.32;52358.41;5060988;28;19972;-74
2021/09/20 11:42:12;;;;;;;;;;;;;;;-144.99;56.52;52358.41;5065598;28;20026;-71
2021/09/20 11:44:46;;;;;;;;;;;;;;;-144.99;56.01;52391.03;5065607;28;20081;-71
2021/09/20 11:47:13;;;;;;;;;;;;;;;-144.99;55.45;52415.47;5065549;28;20001;-72
2021/09/20 11:49:41;;;;;;;;;;;;;;;-144.99;55.97;52391.03;5055126;28;20408;-74
2021/09/20 11:52:07;;;;;;;;;;;;;;;-144.99;55.76;52378.78;5064317;28;20409;-73
2021/09/20 11:54:35;;;;;;;;;;;;;;;-144.99;55.19;52333.94;5065415;28;20011;-72
2021/09/20 11:57:15;;;;;;;;;;;;;;;-144.99;55.39;52374.72;5065614;28;20474;-74
2021/09/20 11:59:42;;;;;;;;;;;;;;;-144.99;55.09;52382.88;5061396;28;19972;-75
2021/09/20 12:02:09;;;;;;;;;;;;;;;-144.99;55.37;52378.78;5065420;28;20061;-75
2021/09/20 12:04:47;;;;;;;;;;;;;;;-144.99;55.69;52384.91;5065495;28;20002;-72
2021/09/20 12:07:25;;;;;;;;;;;;;;;-144.99;55.62;52407.31;5063861;28;19975;-71
2021/09/20 12:09:51;;;;;;;;;;;;;;;-144.99;55.46;52395.09;5056661;28;19970;-73
2021/09/20 12:12:18;;;;;;;;;;;;;;;-144.99;55.95;52391.03;5065341;28;19986;-73
2021/09/20 12:14:54;;;;;;;;;;;;;;;-144.99;56.97;52388.97;5065337;28;19984;-70
2021/09/20 12:17:20;;;;;;;;;;;;;;;-144.99;57.31;52358.41;5065029;28;20437;-74
2021/09/20 12:19:52;;;;;;;;;;;;;;;-144.99;57.63;52374.72;5062681;28;19978;-74
2021/09/20 12:22:18;;;;;;;;;;;;;;;-144.99;58.07;52407.31;5060886;28;20073;-72
2021/09/20 12:24:45;;;;;;;;;;;;;;;-144.99;58.08;52431.78;5067944;28;19979;-75
2021/09/20 12:27:11;;;;;;;;;;;;;;;-144.99;58.15;52397.13;5115228;22;20276;-75
2021/09/20 12:29:38;;;;;;;;;;;;;;;-144.99;58.63;52399.19;5090168;28;20479;-75